Mein Schiff 3 — 9HA3062 — position and weather

sailwx.info

Track history (hours):
 
Tides and Currents Weather Stations Pressure Air Temp Water Temp Dewpoint Dewpoint Depression Visibility Wind Speed Wind Dir Waves Ship Positions

Mein Schiff 3

Last reported at 2018-Jun-21 20:38 UTC. Time now 2018-Jun-22 03:53 UTC.
Position N 54°02' E 007°37'.

Length 294 m; draft 8.2 m.

Type: Passenger vessel. MMSI: 229090000.

Date/timePositionNaut miles runAvg speedWind from/ knotsBaromVisibWave heightAir tempDewpointWater temp
2018-Jun-21 20:38N 54°02' E 007°37'215.2
2018-Jun-21 20:30N 54°01' E 007°39'1513.4
2018-Jun-21 19:25N 53°52' E 007°58'615.1
2018-Jun-21 19:00N 53°49' E 008°08'815.1
2018-Jun-21 18:30N 53°43' E 008°17'714.2
2018-Jun-21 18:00N 53°39' E 008°25'611.7
2018-Jun-21 17:30N 53°34' E 008°32'1 2.0
2018-Jun-21 17:00N 53°34' E 008°33'0 0.0
2018-Jun-21 16:30N 53°34' E 008°33'0 0.0
2018-Jun-21 16:00N 53°34' E 008°33'0 0.0
2018-Jun-21 15:30N 53°34' E 008°33'0 0.0
2018-Jun-21 15:00N 53°34' E 008°33'0 0.0
2018-Jun-21 14:30N 53°34' E 008°33'0 0.0
2018-Jun-21 14:00N 53°34' E 008°33'0 0.0
2018-Jun-21 13:30N 53°34' E 008°33'0 0.0
2018-Jun-21 13:00N 53°34' E 008°33'0 0.0
2018-Jun-21 12:30N 53°34' E 008°33'0 0.0
2018-Jun-21 12:00N 53°34' E 008°33'0 0.0
2018-Jun-21 11:30N 53°34' E 008°33'0 0.0
2018-Jun-21 11:00N 53°34' E 008°33'0 0.0
2018-Jun-21 10:30N 53°34' E 008°33'0 0.0
2018-Jun-21 10:00N 53°34' E 008°33'0 0.0
2018-Jun-21 09:30N 53°34' E 008°33'0 0.0
2018-Jun-21 08:57N 53°34' E 008°33'0 0.0
2018-Jun-21 08:30N 53°34' E 008°33'0 0.0
2018-Jun-21 08:00N 53°34' E 008°33'0 0.0
2018-Jun-21 07:30N 53°34' E 008°33'0 0.0
2018-Jun-21 07:00N 53°34' E 008°33'0 0.0
2018-Jun-21 06:30N 53°34' E 008°33'0 0.0
2018-Jun-21 06:00N 53°34' E 008°33'0 0.0
2018-Jun-21 05:30N 53°34' E 008°33'0 0.0
2018-Jun-21 05:00N 53°34' E 008°33'0 0.0
2018-Jun-21 04:30N 53°34' E 008°33'0 0.0
2018-Jun-21 04:00N 53°34' E 008°33'0 0.0
2018-Jun-21 03:30N 53°34' E 008°33'0 0.0
2018-Jun-21 03:00N 53°34' E 008°33'0 0.0
2018-Jun-21 02:30N 53°34' E 008°33'2 3.7
2018-Jun-21 02:00N 53°35' E 008°31'713.4
2018-Jun-21 01:30N 53°40' E 008°23'816.4
2018-Jun-21 01:00N 53°45' E 008°13'816.2
2018-Jun-21 00:30N 53°50' E 008°03'814.0
2018-Jun-20 23:57N 53°52' E 007°50'5715.6
2018-Jun-20 20:18N 53°43' E 006°15'514.0
2018-Jun-20 19:57N 53°42' E 006°07'614.1
2018-Jun-20 19:30N 53°40' E 005°57'714.0
2018-Jun-20 19:00N 53°38' E 005°46'713.9
2018-Jun-20 18:30N 53°36' E 005°34'713.6
2018-Jun-20 18:00N 53°34' E 005°24'713.5
2018-Jun-20 17:30N 53°31' E 005°13'713.8
2018-Jun-20 17:01N 53°29' E 005°02'714.0
2018-Jun-20 16:30N 53°26' E 004°51'714.8
2018-Jun-20 16:00N 53°21' E 004°42'2915.7
2018-Jun-20 14:11N 52°56' E 004°19'315.8
2018-Jun-20 13:58N 52°53' E 004°17'815.6
2018-Jun-20 13:29N 52°47' E 004°10'815.8
2018-Jun-20 13:00N 52°42' E 004°00'815.3
2018-Jun-20 12:30N 52°37' E 003°51'815.3
2018-Jun-20 12:00N 52°30' E 003°44'815.9
2018-Jun-20 11:30N 52°24' E 003°36'815.6
2018-Jun-20 10:59N 52°18' E 003°27'1015.8
2018-Jun-20 10:21N 52°12' E 003°13'512.9
2018-Jun-20 09:57N 52°09' E 003°08'4 8.2
2018-Jun-20 09:26N 52°06' E 003°03'612.4
2018-Jun-20 08:55N 52°01' E 002°56'1019.8
2018-Jun-20 08:25N 51°53' E 002°46'1414.1
2018-Jun-20 07:25N 51°43' E 002°30'714.1
2018-Jun-20 06:56N 51°38' E 002°23'817.4
2018-Jun-20 06:30N 51°32' E 002°15'918.8
2018-Jun-20 06:00N 51°25' E 002°06'918.7
2018-Jun-20 05:30N 51°18' E 001°56'1019.2
2018-Jun-20 05:00N 51°11' E 001°46'1019.7
2018-Jun-20 04:30N 51°03' E 001°35'1019.4
2018-Jun-20 04:00N 50°54' E 001°28'1019.3
2018-Jun-20 03:30N 50°45' E 001°24'917.8
2018-Jun-20 03:00N 50°38' E 001°15'1217.6
2018-Jun-20 02:21N 50°33' E 000°59'618.2
2018-Jun-20 02:00N 50°30' E 000°50'1018.8
2018-Jun-20 01:30N 50°28' E 000°36'918.9
2018-Jun-20 01:00N 50°25' E 000°22'1817.9
2018-Jun-20 00:00N 50°23' W 000°06'1017.8
2018-Jun-19 23:25N 50°27' W 000°21'717.5
2018-Jun-19 23:00N 50°30' W 000°32'917.1
2018-Jun-19 22:30N 50°34' W 000°44'816.8
2018-Jun-19 22:00N 50°39' W 000°54'612.7
2018-Jun-19 21:31N 50°43' W 001°01'816.6
2018-Jun-19 21:00N 50°46' W 001°13'5 9.9
2018-Jun-19 20:30N 50°50' W 001°18'5 9.5
2018-Jun-19 20:01N 50°53' W 001°24'1 2.4
2018-Jun-19 19:30N 50°54' W 001°25'0 0.0
2018-Jun-19 18:54N 50°54' W 001°25'0 0.0
2018-Jun-19 18:30N 50°54' W 001°25'0 0.0
2018-Jun-19 17:54N 50°54' W 001°25'0 0.0
2018-Jun-19 17:30N 50°54' W 001°25'0 0.0
2018-Jun-19 17:00N 50°54' W 001°25'0 0.0
2018-Jun-19 16:30N 50°54' W 001°25'0 0.0
2018-Jun-19 15:57N 50°54' W 001°25'0 0.0
2018-Jun-19 15:27N 50°54' W 001°25'0 0.0
2018-Jun-19 15:00N 50°54' W 001°25'0 0.0
2018-Jun-19 14:29N 50°54' W 001°25'0 0.0
2018-Jun-19 13:59N 50°54' W 001°25'0 0.0
2018-Jun-19 13:29N 50°54' W 001°25'0 0.0
2018-Jun-19 12:59N 50°54' W 001°25'0 0.0
2018-Jun-19 12:29N 50°54' W 001°25'0 0.0
2018-Jun-19 11:53N 50°54' W 001°25'0 0.0
2018-Jun-19 11:29N 50°54' W 001°25'0 0.0
2018-Jun-19 10:59N 50°54' W 001°25'0 0.0
2018-Jun-19 10:26N 50°54' W 001°25'0 0.0
2018-Jun-19 09:56N 50°54' W 001°25'0 0.0
2018-Jun-19 09:26N 50°54' W 001°25'0 0.0
2018-Jun-19 08:59N 50°54' W 001°25'0 0.0
2018-Jun-19 08:26N 50°54' W 001°25'0 0.0
2018-Jun-19 07:59N 50°54' W 001°25'0 0.0
2018-Jun-19 07:26N 50°54' W 001°25'0 0.0
2018-Jun-19 06:59N 50°54' W 001°25'0 0.0
2018-Jun-19 06:29N 50°54' W 001°25'0 0.0
2018-Jun-19 05:59N 50°54' W 001°25'0 0.0
2018-Jun-19 05:29N 50°54' W 001°25'0 0.3
2018-Jun-19 05:01N 50°54' W 001°25'4 7.5
2018-Jun-19 04:31N 50°51' W 001°21'5 9.0
2018-Jun-19 04:01N 50°47' W 001°19'713.6
2018-Jun-19 03:30N 50°46' W 001°08'713.3
2018-Jun-19 03:00N 50°43' W 000°59'5 9.3
2018-Jun-19 02:30N 50°38' W 000°57'4 7.4
2018-Jun-19 02:00N 50°35' W 000°59'4 7.1
2018-Jun-19 01:30N 50°32' W 001°03'5 7.1
2018-Jun-19 00:51N 50°30' W 001°10'3 7.4
2018-Jun-19 00:30N 50°29' W 001°14'4 8.4
2018-Jun-19 00:00N 50°26' W 001°19'6 9.0
2018-Jun-18 23:19N 50°29' W 001°27'3 9.8
2018-Jun-18 23:00N 50°29' W 001°32'5 9.5
2018-Jun-18 22:29N 50°29' W 001°40'5 9.4
2018-Jun-18 22:00N 50°29' W 001°47'5 9.7
2018-Jun-18 21:30N 50°29' W 001°54'510.7
2018-Jun-18 21:00N 50°29' W 002°03'7 9.3
2018-Jun-18 20:12N 50°32' W 002°14'2 9.0
2018-Jun-18 20:00N 50°33' W 002°16'5 8.8
2018-Jun-18 19:29N 50°35' W 002°22'2 1.4
2018-Jun-18 17:44N 50°34' W 002°26'0 0.0
2018-Jun-18 15:38N 50°34' W 002°26'0 0.0
2018-Jun-18 15:05N 50°34' W 002°26'0 0.0
2018-Jun-18 14:44N 50°34' W 002°26'0 0.0
2018-Jun-18 14:05N 50°34' W 002°26'0 0.0
2018-Jun-18 13:56N 50°34' W 002°26'0 0.0
2018-Jun-18 13:29N 50°34' W 002°26'0 0.0
2018-Jun-18 12:50N 50°34' W 002°26'0 0.0
2018-Jun-18 12:29N 50°34' W 002°26'0 0.0
2018-Jun-18 11:59N 50°34' W 002°26'0 0.0
2018-Jun-18 11:22N 50°34' W 002°26'0 0.0
2018-Jun-18 10:59N 50°34' W 002°26'0 0.0
2018-Jun-18 10:23N 50°34' W 002°26'0 0.0
2018-Jun-18 09:56N 50°34' W 002°26'0 0.0
2018-Jun-18 09:29N 50°34' W 002°26'0 0.0
2018-Jun-18 09:00N 50°34' W 002°26'0 0.0
2018-Jun-18 08:27N 50°34' W 002°26'0 0.0
2018-Jun-18 07:18N 50°34' W 002°26'0 0.0
2018-Jun-18 06:16N 50°34' W 002°26'0 0.0
2018-Jun-18 05:51N 50°34' W 002°26'0 0.5
2018-Jun-18 05:29N 50°34' W 002°26'2 4.0
2018-Jun-18 05:00N 50°36' W 002°24'6 8.7
2018-Jun-18 04:19N 50°30' W 002°25'3 9.2
2018-Jun-18 04:00N 50°28' W 002°29'611.2
2018-Jun-18 03:30N 50°25' W 002°36'611.5
2018-Jun-18 03:00N 50°23' W 002°44'612.4
2018-Jun-18 02:30N 50°20' W 002°53'612.8
2018-Jun-18 02:00N 50°18' W 003°03'713.1
2018-Jun-18 01:30N 50°15' W 003°12'713.2
2018-Jun-18 01:00N 50°12' W 003°21'713.3
2018-Jun-18 00:30N 50°09' W 003°31'713.4
2018-Jun-18 00:00N 50°06' W 003°40'713.4
2018-Jun-17 23:27N 50°04' W 003°51'613.5
2018-Jun-17 22:59N 50°01' W 004°00'613.3
2018-Jun-17 22:30N 49°59' W 004°09'713.3
2018-Jun-17 22:00N 49°56' W 004°19'613.3
2018-Jun-17 21:30N 49°54' W 004°28'170 9.2
2018-Jun-17 03:02N 52°37' W 005°44'015.2
2018-Jun-17 03:00N 52°38' W 005°44'815.0
2018-Jun-17 02:26N 52°46' W 005°42'614.5
2018-Jun-17 02:00N 52°52' W 005°41'714.3
2018-Jun-17 01:30N 52°59' W 005°46'814.3
2018-Jun-17 00:57N 53°05' W 005°54'613.3
2018-Jun-17 00:29N 53°11' W 005°58'12 0.5
2018-Jun-16 00:23N 53°21' W 006°09'410.1
2018-Jun-16 00:00N 53°21' W 006°03'611.2
2018-Jun-15 23:29N 53°20' W 005°54'815.8
2018-Jun-15 23:00N 53°20' W 005°41'58 2.7
2018-Jun-15 01:36N 54°14' W 005°02'216.4
2018-Jun-15 01:30N 54°15' W 005°03'816.6
2018-Jun-15 01:00N 54°23' W 005°06'816.1
2018-Jun-15 00:30N 54°31' W 005°09'816.3
2018-Jun-15 00:00N 54°39' W 005°12'816.3
2018-Jun-14 23:30N 54°47' W 005°15'816.0
2018-Jun-14 23:00N 54°55' W 005°18'815.1
2018-Jun-14 22:30N 55°02' W 005°15'4015.3
2018-Jun-14 19:54N 55°41' W 004°59'513.4
2018-Jun-14 19:30N 55°46' W 004°58'714.6
2018-Jun-14 19:00N 55°53' W 004°56'6 0.4
2018-Jun-14 02:40N 55°58' W 004°49'211.1
2018-Jun-14 02:30N 55°58' W 004°52'714.8
2018-Jun-14 02:00N 55°51' W 004°57'713.2
2018-Jun-14 01:30N 55°44' W 004°59'3516.0
2018-Jun-13 23:20N 55°11' W 005°17'616.8
2018-Jun-13 22:59N 55°06' W 005°21'816.4
2018-Jun-13 22:30N 54°59' W 005°27'816.0
2018-Jun-13 22:00N 54°51' W 005°32'816.1
2018-Jun-13 21:30N 54°44' W 005°38'4 7.5
2018-Jun-13 21:01N 54°42' W 005°43'0 0.4
2018-Jun-13 20:30N 54°42' W 005°43'0 0.5
2018-Jun-13 20:01N 54°41' W 005°43'4 7.2
2018-Jun-13 19:30N 54°41' W 005°49'4 7.7
2018-Jun-13 19:00N 54°37' W 005°53'1 1.5
2018-Jun-13 18:29N 54°37' W 005°54'0 0.0
2018-Jun-13 17:58N 54°37' W 005°54'0 0.0
2018-Jun-13 17:28N 54°37' W 005°54'0 0.0
2018-Jun-13 16:58N 54°37' W 005°54'0 0.0
2018-Jun-13 16:28N 54°37' W 005°54'0 0.0
2018-Jun-13 15:58N 54°37' W 005°54'0 0.0
2018-Jun-13 15:28N 54°37' W 005°54'0 0.0
2018-Jun-13 14:58N 54°37' W 005°54'0 0.0
2018-Jun-13 14:28N 54°37' W 005°54'0 0.0
2018-Jun-13 13:58N 54°37' W 005°54'0 0.0
2018-Jun-13 13:28N 54°37' W 005°54'0 0.0
2018-Jun-13 12:58N 54°37' W 005°54'0 0.0
2018-Jun-13 12:28N 54°37' W 005°54'0 0.0
2018-Jun-13 11:58N 54°37' W 005°54'0 0.0
2018-Jun-13 11:28N 54°37' W 005°54'0 0.0
2018-Jun-13 10:58N 54°37' W 005°54'0 0.0
2018-Jun-13 10:28N 54°37' W 005°54'0 0.0
2018-Jun-13 09:58N 54°37' W 005°54'0 0.0
2018-Jun-13 09:30N 54°37' W 005°54'0 0.0
2018-Jun-13 08:59N 54°37' W 005°54'0 0.0
2018-Jun-13 08:29N 54°37' W 005°54'0 0.0
2018-Jun-13 07:59N 54°37' W 005°54'0 0.0
2018-Jun-13 07:29N 54°37' W 005°54'0 0.0
2018-Jun-13 06:59N 54°37' W 005°54'2 3.2
2018-Jun-13 06:29N 54°38' W 005°53'4 9.3
2018-Jun-13 06:00N 54°41' W 005°47'5 9.2
2018-Jun-13 05:30N 54°43' W 005°40'510.0
2018-Jun-13 05:00N 54°47' W 005°35'714.7
2018-Jun-13 04:30N 54°54' W 005°38'1214.0
2018-Jun-13 03:40N 55°05' W 005°49'213.7
2018-Jun-13 03:30N 55°07' W 005°51'612.9
2018-Jun-13 03:00N 55°12' W 005°56'612.0
2018-Jun-13 02:30N 55°17' W 006°02'611.4
2018-Jun-13 02:00N 55°21' W 006°10'612.4
2018-Jun-13 01:30N 55°23' W 006°20'612.7
2018-Jun-13 01:00N 55°25' W 006°31'713.1
2018-Jun-13 00:30N 55°27' W 006°42'713.3
2018-Jun-13 00:00N 55°32' W 006°49'713.1
2018-Jun-12 23:30N 55°38' W 006°56'713.9
2018-Jun-12 23:00N 55°44' W 007°01'814.8
2018-Jun-12 22:28N 55°52' W 007°05'  
Track history (hours):
 
Tides and Currents Weather Stations Pressure Air Temp Water Temp Dewpoint Dewpoint Depression Visibility Wind Speed Wind Dir Waves Ship Positions

Mein Schiff 3

Last reported at 2018-Jun-21 20:38 UTC. Time now 2018-Jun-22 03:53 UTC.
Position N 54°02' E 007°37'.

Length 294 m; draft 8.2 m.

Type: Passenger vessel. MMSI: 229090000.

Date/timePositionNaut miles runAvg speedWind from/ knotsBaromVisibWave heightAir tempDewpointWater temp
2018-Jun-21 20:38N 54°02' E 007°37'215.2
2018-Jun-21 20:30N 54°01' E 007°39'1513.4
2018-Jun-21 19:25N 53°52' E 007°58'615.1
2018-Jun-21 19:00N 53°49' E 008°08'815.1
2018-Jun-21 18:30N 53°43' E 008°17'714.2
2018-Jun-21 18:00N 53°39' E 008°25'611.7
2018-Jun-21 17:30N 53°34' E 008°32'1 2.0
2018-Jun-21 17:00N 53°34' E 008°33'0 0.0
2018-Jun-21 16:30N 53°34' E 008°33'0 0.0
2018-Jun-21 16:00N 53°34' E 008°33'0 0.0
2018-Jun-21 15:30N 53°34' E 008°33'0 0.0
2018-Jun-21 15:00N 53°34' E 008°33'0 0.0
2018-Jun-21 14:30N 53°34' E 008°33'0 0.0
2018-Jun-21 14:00N 53°34' E 008°33'0 0.0
2018-Jun-21 13:30N 53°34' E 008°33'0 0.0
2018-Jun-21 13:00N 53°34' E 008°33'0 0.0
2018-Jun-21 12:30N 53°34' E 008°33'0 0.0
2018-Jun-21 12:00N 53°34' E 008°33'0 0.0
2018-Jun-21 11:30N 53°34' E 008°33'0 0.0
2018-Jun-21 11:00N 53°34' E 008°33'0 0.0
2018-Jun-21 10:30N 53°34' E 008°33'0 0.0
2018-Jun-21 10:00N 53°34' E 008°33'0 0.0
2018-Jun-21 09:30N 53°34' E 008°33'0 0.0
2018-Jun-21 08:57N 53°34' E 008°33'0 0.0
2018-Jun-21 08:30N 53°34' E 008°33'0 0.0
2018-Jun-21 08:00N 53°34' E 008°33'0 0.0
2018-Jun-21 07:30N 53°34' E 008°33'0 0.0
2018-Jun-21 07:00N 53°34' E 008°33'0 0.0
2018-Jun-21 06:30N 53°34' E 008°33'0 0.0
2018-Jun-21 06:00N 53°34' E 008°33'0 0.0
2018-Jun-21 05:30N 53°34' E 008°33'0 0.0
2018-Jun-21 05:00N 53°34' E 008°33'0 0.0
2018-Jun-21 04:30N 53°34' E 008°33'0 0.0
2018-Jun-21 04:00N 53°34' E 008°33'0 0.0
2018-Jun-21 03:30N 53°34' E 008°33'0 0.0
2018-Jun-21 03:00N 53°34' E 008°33'0 0.0
2018-Jun-21 02:30N 53°34' E 008°33'2 3.7
2018-Jun-21 02:00N 53°35' E 008°31'713.4
2018-Jun-21 01:30N 53°40' E 008°23'816.4
2018-Jun-21 01:00N 53°45' E 008°13'816.2
2018-Jun-21 00:30N 53°50' E 008°03'814.0
2018-Jun-20 23:57N 53°52' E 007°50'5715.6
2018-Jun-20 20:18N 53°43' E 006°15'514.0
2018-Jun-20 19:57N 53°42' E 006°07'614.1
2018-Jun-20 19:30N 53°40' E 005°57'714.0
2018-Jun-20 19:00N 53°38' E 005°46'713.9
2018-Jun-20 18:30N 53°36' E 005°34'713.6
2018-Jun-20 18:00N 53°34' E 005°24'713.5
2018-Jun-20 17:30N 53°31' E 005°13'713.8
2018-Jun-20 17:01N 53°29' E 005°02'714.0
2018-Jun-20 16:30N 53°26' E 004°51'714.8
2018-Jun-20 16:00N 53°21' E 004°42'2915.7
2018-Jun-20 14:11N 52°56' E 004°19'315.8
2018-Jun-20 13:58N 52°53' E 004°17'815.6
2018-Jun-20 13:29N 52°47' E 004°10'815.8
2018-Jun-20 13:00N 52°42' E 004°00'815.3
2018-Jun-20 12:30N 52°37' E 003°51'815.3
2018-Jun-20 12:00N 52°30' E 003°44'815.9
2018-Jun-20 11:30N 52°24' E 003°36'815.6
2018-Jun-20 10:59N 52°18' E 003°27'1015.8
2018-Jun-20 10:21N 52°12' E 003°13'512.9
2018-Jun-20 09:57N 52°09' E 003°08'4 8.2
2018-Jun-20 09:26N 52°06' E 003°03'612.4
2018-Jun-20 08:55N 52°01' E 002°56'1019.8
2018-Jun-20 08:25N 51°53' E 002°46'1414.1
2018-Jun-20 07:25N 51°43' E 002°30'714.1
2018-Jun-20 06:56N 51°38' E 002°23'817.4
2018-Jun-20 06:30N 51°32' E 002°15'918.8
2018-Jun-20 06:00N 51°25' E 002°06'918.7
2018-Jun-20 05:30N 51°18' E 001°56'1019.2
2018-Jun-20 05:00N 51°11' E 001°46'1019.7
2018-Jun-20 04:30N 51°03' E 001°35'1019.4
2018-Jun-20 04:00N 50°54' E 001°28'1019.3
2018-Jun-20 03:30N 50°45' E 001°24'917.8
2018-Jun-20 03:00N 50°38' E 001°15'1217.6
2018-Jun-20 02:21N 50°33' E 000°59'618.2
2018-Jun-20 02:00N 50°30' E 000°50'1018.8
2018-Jun-20 01:30N 50°28' E 000°36'918.9
2018-Jun-20 01:00N 50°25' E 000°22'1817.9
2018-Jun-20 00:00N 50°23' W 000°06'1017.8
2018-Jun-19 23:25N 50°27' W 000°21'717.5
2018-Jun-19 23:00N 50°30' W 000°32'917.1
2018-Jun-19 22:30N 50°34' W 000°44'816.8
2018-Jun-19 22:00N 50°39' W 000°54'612.7
2018-Jun-19 21:31N 50°43' W 001°01'816.6
2018-Jun-19 21:00N 50°46' W 001°13'5 9.9
2018-Jun-19 20:30N 50°50' W 001°18'5 9.5
2018-Jun-19 20:01N 50°53' W 001°24'1 2.4
2018-Jun-19 19:30N 50°54' W 001°25'0 0.0
2018-Jun-19 18:54N 50°54' W 001°25'0 0.0
2018-Jun-19 18:30N 50°54' W 001°25'0 0.0
2018-Jun-19 17:54N 50°54' W 001°25'0 0.0
2018-Jun-19 17:30N 50°54' W 001°25'0 0.0
2018-Jun-19 17:00N 50°54' W 001°25'0 0.0
2018-Jun-19 16:30N 50°54' W 001°25'0 0.0
2018-Jun-19 15:57N 50°54' W 001°25'0 0.0
2018-Jun-19 15:27N 50°54' W 001°25'0 0.0
2018-Jun-19 15:00N 50°54' W 001°25'0 0.0
2018-Jun-19 14:29N 50°54' W 001°25'0 0.0
2018-Jun-19 13:59N 50°54' W 001°25'0 0.0
2018-Jun-19 13:29N 50°54' W 001°25'0 0.0
2018-Jun-19 12:59N 50°54' W 001°25'0 0.0
2018-Jun-19 12:29N 50°54' W 001°25'0 0.0
2018-Jun-19 11:53N 50°54' W 001°25'0 0.0
2018-Jun-19 11:29N 50°54' W 001°25'0 0.0
2018-Jun-19 10:59N 50°54' W 001°25'0 0.0
2018-Jun-19 10:26N 50°54' W 001°25'0 0.0
2018-Jun-19 09:56N 50°54' W 001°25'0 0.0
2018-Jun-19 09:26N 50°54' W 001°25'0 0.0
2018-Jun-19 08:59N 50°54' W 001°25'0 0.0
2018-Jun-19 08:26N 50°54' W 001°25'0 0.0
2018-Jun-19 07:59N 50°54' W 001°25'0 0.0
2018-Jun-19 07:26N 50°54' W 001°25'0 0.0
2018-Jun-19 06:59N 50°54' W 001°25'0 0.0
2018-Jun-19 06:29N 50°54' W 001°25'0 0.0
2018-Jun-19 05:59N 50°54' W 001°25'0 0.0
2018-Jun-19 05:29N 50°54' W 001°25'0 0.3
2018-Jun-19 05:01N 50°54' W 001°25'4 7.5
2018-Jun-19 04:31N 50°51' W 001°21'5 9.0
2018-Jun-19 04:01N 50°47' W 001°19'713.6
2018-Jun-19 03:30N 50°46' W 001°08'713.3
2018-Jun-19 03:00N 50°43' W 000°59'5 9.3
2018-Jun-19 02:30N 50°38' W 000°57'4 7.4
2018-Jun-19 02:00N 50°35' W 000°59'4 7.1
2018-Jun-19 01:30N 50°32' W 001°03'5 7.1
2018-Jun-19 00:51N 50°30' W 001°10'3 7.4
2018-Jun-19 00:30N 50°29' W 001°14'4 8.4
2018-Jun-19 00:00N 50°26' W 001°19'6 9.0
2018-Jun-18 23:19N 50°29' W 001°27'3 9.8
2018-Jun-18 23:00N 50°29' W 001°32'5 9.5
2018-Jun-18 22:29N 50°29' W 001°40'5 9.4
2018-Jun-18 22:00N 50°29' W 001°47'5 9.7
2018-Jun-18 21:30N 50°29' W 001°54'510.7
2018-Jun-18 21:00N 50°29' W 002°03'7 9.3
2018-Jun-18 20:12N 50°32' W 002°14'2 9.0
2018-Jun-18 20:00N 50°33' W 002°16'5 8.8
2018-Jun-18 19:29N 50°35' W 002°22'2 1.4
2018-Jun-18 17:44N 50°34' W 002°26'0 0.0
2018-Jun-18 15:38N 50°34' W 002°26'0 0.0
2018-Jun-18 15:05N 50°34' W 002°26'0 0.0
2018-Jun-18 14:44N 50°34' W 002°26'0 0.0
2018-Jun-18 14:05N 50°34' W 002°26'0 0.0
2018-Jun-18 13:56N 50°34' W 002°26'0 0.0
2018-Jun-18 13:29N 50°34' W 002°26'0 0.0
2018-Jun-18 12:50N 50°34' W 002°26'0 0.0
2018-Jun-18 12:29N 50°34' W 002°26'0 0.0
2018-Jun-18 11:59N 50°34' W 002°26'0 0.0
2018-Jun-18 11:22N 50°34' W 002°26'0 0.0
2018-Jun-18 10:59N 50°34' W 002°26'0 0.0
2018-Jun-18 10:23N 50°34' W 002°26'0 0.0
2018-Jun-18 09:56N 50°34' W 002°26'0 0.0
2018-Jun-18 09:29N 50°34' W 002°26'0 0.0
2018-Jun-18 09:00N 50°34' W 002°26'0 0.0
2018-Jun-18 08:27N 50°34' W 002°26'0 0.0
2018-Jun-18 07:18N 50°34' W 002°26'0 0.0
2018-Jun-18 06:16N 50°34' W 002°26'0 0.0
2018-Jun-18 05:51N 50°34' W 002°26'0 0.5
2018-Jun-18 05:29N 50°34' W 002°26'2 4.0
2018-Jun-18 05:00N 50°36' W 002°24'6 8.7
2018-Jun-18 04:19N 50°30' W 002°25'3 9.2
2018-Jun-18 04:00N 50°28' W 002°29'611.2
2018-Jun-18 03:30N 50°25' W 002°36'611.5
2018-Jun-18 03:00N 50°23' W 002°44'612.4
2018-Jun-18 02:30N 50°20' W 002°53'612.8
2018-Jun-18 02:00N 50°18' W 003°03'713.1
2018-Jun-18 01:30N 50°15' W 003°12'713.2
2018-Jun-18 01:00N 50°12' W 003°21'713.3
2018-Jun-18 00:30N 50°09' W 003°31'713.4
2018-Jun-18 00:00N 50°06' W 003°40'713.4
2018-Jun-17 23:27N 50°04' W 003°51'613.5
2018-Jun-17 22:59N 50°01' W 004°00'613.3
2018-Jun-17 22:30N 49°59' W 004°09'713.3
2018-Jun-17 22:00N 49°56' W 004°19'613.3
2018-Jun-17 21:30N 49°54' W 004°28'170 9.2
2018-Jun-17 03:02N 52°37' W 005°44'015.2
2018-Jun-17 03:00N 52°38' W 005°44'815.0
2018-Jun-17 02:26N 52°46' W 005°42'614.5
2018-Jun-17 02:00N 52°52' W 005°41'714.3
2018-Jun-17 01:30N 52°59' W 005°46'814.3
2018-Jun-17 00:57N 53°05' W 005°54'613.3
2018-Jun-17 00:29N 53°11' W 005°58'12 0.5
2018-Jun-16 00:23N 53°21' W 006°09'410.1
2018-Jun-16 00:00N 53°21' W 006°03'611.2
2018-Jun-15 23:29N 53°20' W 005°54'815.8
2018-Jun-15 23:00N 53°20' W 005°41'58 2.7
2018-Jun-15 01:36N 54°14' W 005°02'216.4
2018-Jun-15 01:30N 54°15' W 005°03'816.6
2018-Jun-15 01:00N 54°23' W 005°06'816.1
2018-Jun-15 00:30N 54°31' W 005°09'816.3
2018-Jun-15 00:00N 54°39' W 005°12'816.3
2018-Jun-14 23:30N 54°47' W 005°15'816.0
2018-Jun-14 23:00N 54°55' W 005°18'815.1
2018-Jun-14 22:30N 55°02' W 005°15'4015.3
2018-Jun-14 19:54N 55°41' W 004°59'513.4
2018-Jun-14 19:30N 55°46' W 004°58'714.6
2018-Jun-14 19:00N 55°53' W 004°56'6 0.4
2018-Jun-14 02:40N 55°58' W 004°49'211.1
2018-Jun-14 02:30N 55°58' W 004°52'714.8
2018-Jun-14 02:00N 55°51' W 004°57'713.2
2018-Jun-14 01:30N 55°44' W 004°59'3516.0
2018-Jun-13 23:20N 55°11' W 005°17'616.8
2018-Jun-13 22:59N 55°06' W 005°21'816.4
2018-Jun-13 22:30N 54°59' W 005°27'816.0
2018-Jun-13 22:00N 54°51' W 005°32'816.1
2018-Jun-13 21:30N 54°44' W 005°38'4 7.5
2018-Jun-13 21:01N 54°42' W 005°43'0 0.4
2018-Jun-13 20:30N 54°42' W 005°43'0 0.5
2018-Jun-13 20:01N 54°41' W 005°43'4 7.2
2018-Jun-13 19:30N 54°41' W 005°49'4 7.7
2018-Jun-13 19:00N 54°37' W 005°53'1 1.5
2018-Jun-13 18:29N 54°37' W 005°54'0 0.0
2018-Jun-13 17:58N 54°37' W 005°54'0 0.0
2018-Jun-13 17:28N 54°37' W 005°54'0 0.0
2018-Jun-13 16:58N 54°37' W 005°54'0 0.0
2018-Jun-13 16:28N 54°37' W 005°54'0 0.0
2018-Jun-13 15:58N 54°37' W 005°54'0 0.0
2018-Jun-13 15:28N 54°37' W 005°54'0 0.0
2018-Jun-13 14:58N 54°37' W 005°54'0 0.0
2018-Jun-13 14:28N 54°37' W 005°54'0 0.0
2018-Jun-13 13:58N 54°37' W 005°54'0 0.0
2018-Jun-13 13:28N 54°37' W 005°54'0 0.0
2018-Jun-13 12:58N 54°37' W 005°54'0 0.0
2018-Jun-13 12:28N 54°37' W 005°54'0 0.0
2018-Jun-13 11:58N 54°37' W 005°54'0 0.0
2018-Jun-13 11:28N 54°37' W 005°54'0 0.0
2018-Jun-13 10:58N 54°37' W 005°54'0 0.0
2018-Jun-13 10:28N 54°37' W 005°54'0 0.0
2018-Jun-13 09:58N 54°37' W 005°54'0 0.0
2018-Jun-13 09:30N 54°37' W 005°54'0 0.0
2018-Jun-13 08:59N 54°37' W 005°54'0 0.0
2018-Jun-13 08:29N 54°37' W 005°54'0 0.0
2018-Jun-13 07:59N 54°37' W 005°54'0 0.0
2018-Jun-13 07:29N 54°37' W 005°54'0 0.0
2018-Jun-13 06:59N 54°37' W 005°54'2 3.2
2018-Jun-13 06:29N 54°38' W 005°53'4 9.3
2018-Jun-13 06:00N 54°41' W 005°47'5 9.2
2018-Jun-13 05:30N 54°43' W 005°40'510.0
2018-Jun-13 05:00N 54°47' W 005°35'714.7
2018-Jun-13 04:30N 54°54' W 005°38'1214.0
2018-Jun-13 03:40N 55°05' W 005°49'213.7
2018-Jun-13 03:30N 55°07' W 005°51'612.9
2018-Jun-13 03:00N 55°12' W 005°56'612.0
2018-Jun-13 02:30N 55°17' W 006°02'611.4
2018-Jun-13 02:00N 55°21' W 006°10'612.4
2018-Jun-13 01:30N 55°23' W 006°20'612.7
2018-Jun-13 01:00N 55°25' W 006°31'713.1
2018-Jun-13 00:30N 55°27' W 006°42'713.3
2018-Jun-13 00:00N 55°32' W 006°49'713.1
2018-Jun-12 23:30N 55°38' W 006°56'713.9
2018-Jun-12 23:00N 55°44' W 007°01'814.8
2018-Jun-12 22:28N 55°52' W 007°05'  

Dump ship's entire track history